sensor_id;sensor_type;location;lat;lon;timestamp;pressure;altitude;pressure_sealevel;temperature;humidity
50368;BME280;36281;34.132;-118.018;2024-03-22T00:00:12;100255.38;;;24.14;43.62
50368;BME280;36281;34.132;-118.018;2024-03-22T00:02:40;100247.03;;;24.10;43.07
50368;BME280;36281;34.132;-118.018;2024-03-22T00:05:08;100241.03;;;23.94;43.29
50368;BME280;36281;34.132;-118.018;2024-03-22T00:07:36;100247.84;;;23.92;43.63
50368;BME280;36281;34.132;-118.018;2024-03-22T00:10:08;100240.81;;;23.72;43.30
50368;BME280;36281;34.132;-118.018;2024-03-22T00:12:36;100250.38;;;23.59;43.81
50368;BME280;36281;34.132;-118.018;2024-03-22T00:15:04;100244.47;;;23.57;44.18
50368;BME280;36281;34.132;-118.018;2024-03-22T00:17:34;100246.94;;;23.54;44.33
50368;BME280;36281;34.132;-118.018;2024-03-22T00:20:04;100253.22;;;23.49;45.14
50368;BME280;36281;34.132;-118.018;2024-03-22T00:22:32;100255.34;;;23.52;44.66
50368;BME280;36281;34.132;-118.018;2024-03-22T00:25:00;100259.59;;;23.58;44.86
50368;BME280;36281;34.132;-118.018;2024-03-22T00:27:29;100258.06;;;23.52;44.60
50368;BME280;36281;34.132;-118.018;2024-03-22T00:29:57;100258.19;;;23.37;44.35
50368;BME280;36281;34.132;-118.018;2024-03-22T00:32:25;100269.69;;;23.24;44.85
50368;BME280;36281;34.132;-118.018;2024-03-22T00:34:53;100265.16;;;23.19;44.33
50368;BME280;36281;34.132;-118.018;2024-03-22T00:37:21;100274.72;;;23.06;45.22
50368;BME280;36281;34.132;-118.018;2024-03-22T00:39:49;100277.16;;;23.08;45.27
50368;BME280;36281;34.132;-118.018;2024-03-22T00:42:17;100280.00;;;22.92;46.54
50368;BME280;36281;34.132;-118.018;2024-03-22T00:44:46;100278.59;;;22.95;45.79
50368;BME280;36281;34.132;-118.018;2024-03-22T00:47:14;100271.06;;;22.92;45.66
50368;BME280;36281;34.132;-118.018;2024-03-22T00:49:44;100269.47;;;22.86;45.91
50368;BME280;36281;34.132;-118.018;2024-03-22T00:52:12;100274.13;;;22.80;45.86
50368;BME280;36281;34.132;-118.018;2024-03-22T00:54:39;100275.56;;;22.67;46.22
50368;BME280;36281;34.132;-118.018;2024-03-22T00:57:08;100286.38;;;22.62;47.04
50368;BME280;36281;34.132;-118.018;2024-03-22T00:59:35;100286.63;;;22.66;46.72
50368;BME280;36281;34.132;-118.018;2024-03-22T01:02:05;100281.59;;;22.54;47.13
50368;BME280;36281;34.132;-118.018;2024-03-22T01:04:33;100278.97;;;22.44;47.11
50368;BME280;36281;34.132;-118.018;2024-03-22T01:07:01;100279.06;;;22.29;47.82
50368;BME280;36281;34.132;-118.018;2024-03-22T01:09:29;100298.78;;;22.29;47.61
50368;BME280;36281;34.132;-118.018;2024-03-22T01:11:57;100295.59;;;22.17;47.88
50368;BME280;36281;34.132;-118.018;2024-03-22T01:14:25;100302.91;;;22.06;48.44
50368;BME280;36281;34.132;-118.018;2024-03-22T01:16:53;100291.81;;;22.08;48.43
50368;BME280;36281;34.132;-118.018;2024-03-22T01:19:24;100299.69;;;22.04;48.61
50368;BME280;36281;34.132;-118.018;2024-03-22T01:21:52;100299.97;;;21.92;48.95
50368;BME280;36281;34.132;-118.018;2024-03-22T01:24:19;100308.13;;;21.77;49.54
50368;BME280;36281;34.132;-118.018;2024-03-22T01:26:47;100305.75;;;21.71;49.60
50368;BME280;36281;34.132;-118.018;2024-03-22T01:29:15;100316.53;;;21.71;49.52
50368;BME280;36281;34.132;-118.018;2024-03-22T01:31:44;100309.31;;;21.51;50.07
50368;BME280;36281;34.132;-118.018;2024-03-22T01:34:12;100322.28;;;21.33;50.67
50368;BME280;36281;34.132;-118.018;2024-03-22T01:36:42;100329.28;;;21.34;50.72
50368;BME280;36281;34.132;-118.018;2024-03-22T01:39:10;100331.16;;;21.13;51.50
50368;BME280;36281;34.132;-118.018;2024-03-22T01:41:38;100323.31;;;21.17;51.44
50368;BME280;36281;34.132;-118.018;2024-03-22T01:44:06;100326.56;;;21.04;52.01
50368;BME280;36281;34.132;-118.018;2024-03-22T01:46:34;100329.00;;;20.95;52.15
50368;BME280;36281;34.132;-118.018;2024-03-22T01:49:02;100320.34;;;20.83;52.44
50368;BME280;36281;34.132;-118.018;2024-03-22T01:51:30;100324.69;;;20.84;52.73
50368;BME280;36281;34.132;-118.018;2024-03-22T01:54:02;100321.72;;;20.75;53.15
50368;BME280;36281;34.132;-118.018;2024-03-22T01:56:31;100314.44;;;20.76;53.31
50368;BME280;36281;34.132;-118.018;2024-03-22T01:58:59;100317.63;;;20.57;53.74
50368;BME280;36281;34.132;-118.018;2024-03-22T02:01:27;100317.09;;;20.55;53.84
50368;BME280;36281;34.132;-118.018;2024-03-22T02:03:55;100306.00;;;20.42;54.05
50368;BME280;36281;34.132;-118.018;2024-03-22T02:06:23;100321.88;;;20.43;54.22
50368;BME280;36281;34.132;-118.018;2024-03-22T02:08:51;100319.13;;;20.23;55.45
50368;BME280;36281;34.132;-118.018;2024-03-22T02:11:21;100325.06;;;20.20;55.69
50368;BME280;36281;34.132;-118.018;2024-03-22T02:13:50;100322.09;;;20.16;55.78
50368;BME280;36281;34.132;-118.018;2024-03-22T02:16:18;100317.50;;;20.11;55.99
50368;BME280;36281;34.132;-118.018;2024-03-22T02:18:46;100324.19;;;20.04;57.04
50368;BME280;36281;34.132;-118.018;2024-03-22T02:21:14;100325.50;;;19.96;57.16
50368;BME280;36281;34.132;-118.018;2024-03-22T02:23:43;100323.34;;;19.98;57.79
50368;BME280;36281;34.132;-118.018;2024-03-22T02:26:13;100320.09;;;19.86;58.37
50368;BME280;36281;34.132;-118.018;2024-03-22T02:28:40;100328.94;;;19.81;58.10
50368;BME280;36281;34.132;-118.018;2024-03-22T02:31:08;100329.69;;;19.72;58.46
50368;BME280;36281;34.132;-118.018;2024-03-22T02:33:36;100323.75;;;19.65;58.79
50368;BME280;36281;34.132;-118.018;2024-03-22T02:36:04;100329.63;;;19.61;58.80
50368;BME280;36281;34.132;-118.018;2024-03-22T02:38:33;100329.53;;;19.51;59.27
50368;BME280;36281;34.132;-118.018;2024-03-22T02:41:03;100338.38;;;19.47;59.48
50368;BME280;36281;34.132;-118.018;2024-03-22T02:43:31;100336.38;;;19.32;60.13
50368;BME280;36281;34.132;-118.018;2024-03-22T02:45:59;100328.75;;;19.19;60.51
50368;BME280;36281;34.132;-118.018;2024-03-22T02:48:26;100333.59;;;19.17;60.67
50368;BME280;36281;34.132;-118.018;2024-03-22T02:50:56;100331.22;;;19.20;60.51
50368;BME280;36281;34.132;-118.018;2024-03-22T02:53:25;100338.47;;;19.20;60.87
50368;BME280;36281;34.132;-118.018;2024-03-22T02:55:53;100325.25;;;19.13;60.80
50368;BME280;36281;34.132;-118.018;2024-03-22T02:58:23;100330.78;;;19.01;61.54
50368;BME280;36281;34.132;-118.018;2024-03-22T03:00:51;100321.59;;;18.92;62.14
50368;BME280;36281;34.132;-118.018;2024-03-22T03:03:19;100331.19;;;18.88;62.31
50368;BME280;36281;34.132;-118.018;2024-03-22T03:05:48;100335.19;;;18.80;62.96
50368;BME280;36281;34.132;-118.018;2024-03-22T03:08:16;100332.91;;;18.99;62.91
50368;BME280;36281;34.132;-118.018;2024-03-22T03:10:43;100332.41;;;19.02;63.22
50368;BME280;36281;34.132;-118.018;2024-03-22T03:13:12;100327.50;;;18.94;63.88
50368;BME280;36281;34.132;-118.018;2024-03-22T03:15:42;100314.50;;;18.81;63.71
50368;BME280;36281;34.132;-118.018;2024-03-22T03:18:09;100315.38;;;18.65;63.76
50368;BME280;36281;34.132;-118.018;2024-03-22T03:20:37;100335.88;;;18.71;64.00
50368;BME280;36281;34.132;-118.018;2024-03-22T03:23:05;100335.88;;;18.71;63.79
50368;BME280;36281;34.132;-118.018;2024-03-22T03:25:33;100329.63;;;18.65;65.10
50368;BME280;36281;34.132;-118.018;2024-03-22T03:28:00;100343.38;;;18.69;65.49
50368;BME280;36281;34.132;-118.018;2024-03-22T03:30:28;100348.25;;;18.50;65.51
50368;BME280;36281;34.132;-118.018;2024-03-22T03:32:57;100348.50;;;18.48;65.45
50368;BME280;36281;34.132;-118.018;2024-03-22T03:35:25;100350.19;;;18.32;66.38
50368;BME280;36281;34.132;-118.018;2024-03-22T03:37:53;100359.56;;;18.30;66.59
50368;BME280;36281;34.132;-118.018;2024-03-22T03:40:21;100353.13;;;18.09;67.21
50368;BME280;36281;34.132;-118.018;2024-03-22T03:42:51;100364.41;;;18.33;66.84
50368;BME280;36281;34.132;-118.018;2024-03-22T03:45:19;100363.53;;;18.27;66.99
50368;BME280;36281;34.132;-118.018;2024-03-22T03:47:48;100360.88;;;18.27;68.07
50368;BME280;36281;34.132;-118.018;2024-03-22T03:50:18;100374.97;;;18.18;67.99
50368;BME280;36281;34.132;-118.018;2024-03-22T03:52:46;100367.66;;;18.13;67.84
50368;BME280;36281;34.132;-118.018;2024-03-22T03:55:14;100359.91;;;17.95;68.83
50368;BME280;36281;34.132;-118.018;2024-03-22T03:57:42;100371.63;;;17.89;69.18
50368;BME280;36281;34.132;-118.018;2024-03-22T04:00:10;100372.44;;;17.89;69.75
50368;BME280;36281;34.132;-118.018;2024-03-22T04:02:38;100382.03;;;17.85;70.02
50368;BME280;36281;34.132;-118.018;2024-03-22T04:05:06;100379.78;;;17.77;70.60
50368;BME280;36281;34.132;-118.018;2024-03-22T04:07:35;100396.19;;;17.80;70.41
50368;BME280;36281;34.132;-118.018;2024-03-22T04:10:04;100391.06;;;17.79;70.44
50368;BME280;36281;34.132;-118.018;2024-03-22T04:12:31;100396.47;;;17.67;70.99
50368;BME280;36281;34.132;-118.018;2024-03-22T04:14:59;100399.41;;;17.66;71.42
50368;BME280;36281;34.132;-118.018;2024-03-22T04:17:27;100403.22;;;17.70;71.05
50368;BME280;36281;34.132;-118.018;2024-03-22T04:19:54;100405.88;;;17.70;71.59
50368;BME280;36281;34.132;-118.018;2024-03-22T04:22:22;100407.94;;;17.63;71.88
50368;BME280;36281;34.132;-118.018;2024-03-22T04:24:51;100409.13;;;17.55;72.55
50368;BME280;36281;34.132;-118.018;2024-03-22T04:27:19;100415.47;;;17.49;72.68
50368;BME280;36281;34.132;-118.018;2024-03-22T04:29:48;100426.84;;;17.56;72.55
50368;BME280;36281;34.132;-118.018;2024-03-22T04:32:16;100406.56;;;17.43;72.89
50368;BME280;36281;34.132;-118.018;2024-03-22T04:34:44;100417.09;;;17.33;73.80
50368;BME280;36281;34.132;-118.018;2024-03-22T04:37:12;100414.50;;;17.38;73.47
50368;BME280;36281;34.132;-118.018;2024-03-22T04:39:40;100418.16;;;17.32;73.53
50368;BME280;36281;34.132;-118.018;2024-03-22T04:42:09;100407.94;;;17.29;73.98
50368;BME280;36281;34.132;-118.018;2024-03-22T04:44:37;100422.22;;;17.35;74.23
50368;BME280;36281;34.132;-118.018;2024-03-22T04:47:05;100411.75;;;17.16;74.17
50368;BME280;36281;34.132;-118.018;2024-03-22T04:49:32;100419.53;;;17.18;74.40
50368;BME280;36281;34.132;-118.018;2024-03-22T04:52:03;100431.19;;;17.12;75.15
50368;BME280;36281;34.132;-118.018;2024-03-22T04:54:31;100426.16;;;17.15;75.02
50368;BME280;36281;34.132;-118.018;2024-03-22T04:56:58;100431.84;;;17.02;75.72
50368;BME280;36281;34.132;-118.018;2024-03-22T04:59:28;100431.25;;;17.00;75.77
50368;BME280;36281;34.132;-118.018;2024-03-22T05:01:55;100425.06;;;16.99;75.89
50368;BME280;36281;34.132;-118.018;2024-03-22T05:04:23;100427.75;;;16.99;76.00
50368;BME280;36281;34.132;-118.018;2024-03-22T05:06:51;100414.44;;;16.88;75.84
50368;BME280;36281;34.132;-118.018;2024-03-22T05:09:18;100439.41;;;16.93;76.23
50368;BME280;36281;34.132;-118.018;2024-03-22T05:11:47;100432.13;;;16.89;76.17
50368;BME280;36281;34.132;-118.018;2024-03-22T05:14:18;100430.16;;;16.84;76.79
50368;BME280;36281;34.132;-118.018;2024-03-22T05:16:48;100427.28;;;16.74;77.29
50368;BME280;36281;34.132;-118.018;2024-03-22T05:19:16;100434.84;;;16.77;77.37
50368;BME280;36281;34.132;-118.018;2024-03-22T05:21:44;100429.84;;;16.69;77.65
50368;BME280;36281;34.132;-118.018;2024-03-22T05:24:11;100435.31;;;16.62;77.94
50368;BME280;36281;34.132;-118.018;2024-03-22T05:26:40;100430.44;;;16.59;78.51
50368;BME280;36281;34.132;-118.018;2024-03-22T05:29:07;100434.06;;;16.53;78.78
50368;BME280;36281;34.132;-118.018;2024-03-22T05:31:48;100422.69;;;16.46;78.77
50368;BME280;36281;34.132;-118.018;2024-03-22T05:34:16;100419.91;;;16.41;79.00
50368;BME280;36281;34.132;-118.018;2024-03-22T05:36:44;100429.13;;;16.33;79.73
50368;BME280;36281;34.132;-118.018;2024-03-22T05:39:11;100429.81;;;16.28;80.23
50368;BME280;36281;34.132;-118.018;2024-03-22T05:41:39;100430.06;;;16.27;80.25
50368;BME280;36281;34.132;-118.018;2024-03-22T05:44:08;100430.06;;;16.27;80.55
50368;BME280;36281;34.132;-118.018;2024-03-22T05:46:35;100435.31;;;16.22;80.37
50368;BME280;36281;34.132;-118.018;2024-03-22T05:49:07;100430.88;;;16.16;80.96
50368;BME280;36281;34.132;-118.018;2024-03-22T05:51:34;100423.47;;;15.94;81.65
50368;BME280;36281;34.132;-118.018;2024-03-22T05:54:02;100433.81;;;16.02;81.32
50368;BME280;36281;34.132;-118.018;2024-03-22T05:56:30;100437.19;;;15.98;81.76
50368;BME280;36281;34.132;-118.018;2024-03-22T05:58:57;100427.31;;;15.98;81.19
50368;BME280;36281;34.132;-118.018;2024-03-22T06:01:25;100431.38;;;15.89;81.90
50368;BME280;36281;34.132;-118.018;2024-03-22T06:03:52;100442.28;;;15.88;82.64
50368;BME280;36281;34.132;-118.018;2024-03-22T06:06:22;100445.06;;;15.81;83.44
50368;BME280;36281;34.132;-118.018;2024-03-22T06:08:52;100439.28;;;15.84;83.79
50368;BME280;36281;34.132;-118.018;2024-03-22T06:11:21;100438.22;;;15.85;82.94
50368;BME280;36281;34.132;-118.018;2024-03-22T06:13:49;100418.59;;;15.68;83.36
50368;BME280;36281;34.132;-118.018;2024-03-22T06:16:18;100439.50;;;15.71;84.14
50368;BME280;36281;34.132;-118.018;2024-03-22T06:18:45;100428.66;;;15.42;85.06
50368;BME280;36281;34.132;-118.018;2024-03-22T06:21:13;100437.94;;;15.51;84.65
50368;BME280;36281;34.132;-118.018;2024-03-22T06:23:43;100453.63;;;15.60;84.21
50368;BME280;36281;34.132;-118.018;2024-03-22T06:26:10;100455.84;;;15.63;83.75
50368;BME280;36281;34.132;-118.018;2024-03-22T06:28:38;100451.50;;;15.50;84.82
50368;BME280;36281;34.132;-118.018;2024-03-22T06:31:06;100444.53;;;15.37;85.06
50368;BME280;36281;34.132;-118.018;2024-03-22T06:33:36;100442.75;;;15.31;85.49
50368;BME280;36281;34.132;-118.018;2024-03-22T06:36:05;100457.06;;;15.37;85.74
50368;BME280;36281;34.132;-118.018;2024-03-22T06:38:32;100464.03;;;15.38;85.76
50368;BME280;36281;34.132;-118.018;2024-03-22T06:41:03;100463.28;;;15.31;86.13
50368;BME280;36281;34.132;-118.018;2024-03-22T06:43:31;100448.44;;;15.23;86.22
50368;BME280;36281;34.132;-118.018;2024-03-22T06:45:59;100469.25;;;15.33;86.02
50368;BME280;36281;34.132;-118.018;2024-03-22T06:48:26;100460.16;;;15.22;86.30
50368;BME280;36281;34.132;-118.018;2024-03-22T06:50:54;100457.50;;;15.22;86.17
50368;BME280;36281;34.132;-118.018;2024-03-22T06:53:22;100431.53;;;14.99;87.09
50368;BME280;36281;34.132;-118.018;2024-03-22T06:55:50;100447.00;;;15.09;86.90
50368;BME280;36281;34.132;-118.018;2024-03-22T06:58:23;100447.31;;;15.00;87.04
50368;BME280;36281;34.132;-118.018;2024-03-22T07:00:51;100450.72;;;15.08;87.30
50368;BME280;36281;34.132;-118.018;2024-03-22T07:03:19;100445.19;;;14.91;88.06
50368;BME280;36281;34.132;-118.018;2024-03-22T07:05:48;100451.59;;;15.02;87.71
50368;BME280;36281;34.132;-118.018;2024-03-22T07:08:16;100453.13;;;14.97;88.08
50368;BME280;36281;34.132;-118.018;2024-03-22T07:10:44;100451.03;;;14.99;87.29
50368;BME280;36281;34.132;-118.018;2024-03-22T07:13:12;100432.53;;;14.86;87.71
50368;BME280;36281;34.132;-118.018;2024-03-22T07:15:44;100415.69;;;14.74;88.19
50368;BME280;36281;34.132;-118.018;2024-03-22T07:18:13;100415.50;;;14.87;88.13
50368;BME280;36281;34.132;-118.018;2024-03-22T07:20:44;100421.41;;;14.89;88.26
50368;BME280;36281;34.132;-118.018;2024-03-22T07:23:12;100433.03;;;14.95;88.48
50368;BME280;36281;34.132;-118.018;2024-03-22T07:25:40;100427.31;;;14.91;88.12
50368;BME280;36281;34.132;-118.018;2024-03-22T07:28:09;100429.41;;;14.89;88.21
50368;BME280;36281;34.132;-118.018;2024-03-22T07:30:37;100413.84;;;14.86;88.45
50368;BME280;36281;34.132;-118.018;2024-03-22T07:33:06;100419.66;;;14.83;88.18
50368;BME280;36281;34.132;-118.018;2024-03-22T07:35:35;100408.25;;;14.76;88.47
50368;BME280;36281;34.132;-118.018;2024-03-22T07:38:03;100405.72;;;14.81;87.85
50368;BME280;36281;34.132;-118.018;2024-03-22T07:40:32;100399.56;;;14.81;87.98
50368;BME280;36281;34.132;-118.018;2024-03-22T07:43:00;100397.44;;;14.71;88.85
50368;BME280;36281;34.132;-118.018;2024-03-22T07:45:34;100395.25;;;14.68;89.12
50368;BME280;36281;34.132;-118.018;2024-03-22T07:48:02;100381.72;;;14.51;89.72
50368;BME280;36281;34.132;-118.018;2024-03-22T07:50:32;100399.78;;;14.67;89.27
50368;BME280;36281;34.132;-118.018;2024-03-22T07:53:00;100385.03;;;14.65;88.53
50368;BME280;36281;34.132;-118.018;2024-03-22T07:55:28;100382.53;;;14.52;89.21
50368;BME280;36281;34.132;-118.018;2024-03-22T07:57:55;100391.38;;;14.52;89.32
50368;BME280;36281;34.132;-118.018;2024-03-22T08:00:24;100395.41;;;14.55;89.03
50368;BME280;36281;34.132;-118.018;2024-03-22T08:02:52;100390.53;;;14.52;89.21
50368;BME280;36281;34.132;-118.018;2024-03-22T08:05:20;100383.63;;;14.44;89.78
50368;BME280;36281;34.132;-118.018;2024-03-22T08:07:50;100374.22;;;14.41;89.45
50368;BME280;36281;34.132;-118.018;2024-03-22T08:10:19;100395.53;;;14.41;89.27
50368;BME280;36281;34.132;-118.018;2024-03-22T08:12:46;100382.59;;;14.27;90.25
50368;BME280;36281;34.132;-118.018;2024-03-22T08:15:14;100395.19;;;14.38;89.46
50368;BME280;36281;34.132;-118.018;2024-03-22T08:17:42;100386.69;;;14.29;89.02
50368;BME280;36281;34.132;-118.018;2024-03-22T08:20:10;100401.19;;;14.33;89.14
50368;BME280;36281;34.132;-118.018;2024-03-22T08:22:37;100404.28;;;14.30;88.97
50368;BME280;36281;34.132;-118.018;2024-03-22T08:25:07;100408.44;;;14.26;89.67
50368;BME280;36281;34.132;-118.018;2024-03-22T08:27:35;100422.66;;;14.38;89.93
50368;BME280;36281;34.132;-118.018;2024-03-22T08:30:03;100412.91;;;14.32;89.73
50368;BME280;36281;34.132;-118.018;2024-03-22T08:32:31;100411.03;;;14.14;90.71
50368;BME280;36281;34.132;-118.018;2024-03-22T08:34:58;100417.97;;;14.15;90.80
50368;BME280;36281;34.132;-118.018;2024-03-22T08:37:27;100432.72;;;14.18;91.57
50368;BME280;36281;34.132;-118.018;2024-03-22T08:39:55;100434.41;;;14.12;91.92
50368;BME280;36281;34.132;-118.018;2024-03-22T08:42:24;100434.16;;;13.95;93.67
50368;BME280;36281;34.132;-118.018;2024-03-22T08:44:54;100435.63;;;13.73;95.79
50368;BME280;36281;34.132;-118.018;2024-03-22T08:47:22;100427.63;;;13.91;93.49
50368;BME280;36281;34.132;-118.018;2024-03-22T08:49:50;100431.22;;;14.04;91.62
50368;BME280;36281;34.132;-118.018;2024-03-22T08:52:18;100430.34;;;14.10;91.36
50368;BME280;36281;34.132;-118.018;2024-03-22T08:54:45;100438.63;;;13.77;94.14
50368;BME280;36281;34.132;-118.018;2024-03-22T08:57:13;100436.00;;;13.95;91.96
50368;BME280;36281;34.132;-118.018;2024-03-22T08:59:42;100441.28;;;14.02;91.71
50368;BME280;36281;34.132;-118.018;2024-03-22T09:02:10;100446.44;;;13.96;91.08
50368;BME280;36281;34.132;-118.018;2024-03-22T09:04:38;100456.66;;;14.00;90.80
50368;BME280;36281;34.132;-118.018;2024-03-22T09:07:06;100456.28;;;13.96;91.71
50368;BME280;36281;34.132;-118.018;2024-03-22T09:09:34;100446.91;;;13.93;92.08
50368;BME280;36281;34.132;-118.018;2024-03-22T09:12:02;100449.00;;;13.85;92.88
50368;BME280;36281;34.132;-118.018;2024-03-22T09:14:29;100454.09;;;13.68;93.56
50368;BME280;36281;34.132;-118.018;2024-03-22T09:16:59;100455.25;;;13.72;92.77
50368;BME280;36281;34.132;-118.018;2024-03-22T09:19:26;100456.91;;;13.73;92.51
50368;BME280;36281;34.132;-118.018;2024-03-22T09:21:54;100451.13;;;13.76;92.22
50368;BME280;36281;34.132;-118.018;2024-03-22T09:24:22;100425.47;;;13.63;92.29
50368;BME280;36281;34.132;-118.018;2024-03-22T09:26:49;100435.16;;;13.76;92.04
50368;BME280;36281;34.132;-118.018;2024-03-22T09:29:17;100443.28;;;13.63;93.14
50368;BME280;36281;34.132;-118.018;2024-03-22T09:31:45;100425.38;;;13.70;92.94
50368;BME280;36281;34.132;-118.018;2024-03-22T09:34:14;100430.66;;;13.77;92.03
50368;BME280;36281;34.132;-118.018;2024-03-22T09:36:43;100408.28;;;13.59;92.52
50368;BME280;36281;34.132;-118.018;2024-03-22T09:39:10;100419.00;;;13.53;93.57
50368;BME280;36281;34.132;-118.018;2024-03-22T09:41:43;100423.94;;;13.49;94.12
50368;BME280;36281;34.132;-118.018;2024-03-22T09:44:14;100427.34;;;13.56;93.06
50368;BME280;36281;34.132;-118.018;2024-03-22T09:46:43;100422.09;;;13.50;93.39
50368;BME280;36281;34.132;-118.018;2024-03-22T09:49:14;100421.03;;;13.51;92.65
50368;BME280;36281;34.132;-118.018;2024-03-22T09:51:43;100416.53;;;13.51;92.60
50368;BME280;36281;34.132;-118.018;2024-03-22T09:54:11;100409.19;;;13.47;93.10
50368;BME280;36281;34.132;-118.018;2024-03-22T09:56:39;100402.66;;;13.49;92.84
50368;BME280;36281;34.132;-118.018;2024-03-22T09:59:06;100409.19;;;13.47;93.46
50368;BME280;36281;34.132;-118.018;2024-03-22T10:01:35;100412.81;;;13.34;94.47
50368;BME280;36281;34.132;-118.018;2024-03-22T10:04:04;100404.84;;;13.27;95.07
50368;BME280;36281;34.132;-118.018;2024-03-22T10:06:33;100403.34;;;13.38;93.89
50368;BME280;36281;34.132;-118.018;2024-03-22T10:09:01;100405.63;;;13.34;93.25
50368;BME280;36281;34.132;-118.018;2024-03-22T10:11:28;100395.56;;;13.36;93.04
50368;BME280;36281;34.132;-118.018;2024-03-22T10:13:56;100389.94;;;13.19;94.68
50368;BME280;36281;34.132;-118.018;2024-03-22T10:16:23;100388.31;;;13.25;93.70
50368;BME280;36281;34.132;-118.018;2024-03-22T10:18:51;100384.69;;;13.13;94.21
50368;BME280;36281;34.132;-118.018;2024-03-22T10:21:20;100386.91;;;13.16;94.25
50368;BME280;36281;34.132;-118.018;2024-03-22T10:23:50;100383.41;;;13.22;93.75
50368;BME280;36281;34.132;-118.018;2024-03-22T10:26:19;100380.81;;;13.09;95.11
50368;BME280;36281;34.132;-118.018;2024-03-22T10:28:47;100377.88;;;13.17;93.42
50368;BME280;36281;34.132;-118.018;2024-03-22T10:31:14;100372.56;;;13.17;93.91
50368;BME280;36281;34.132;-118.018;2024-03-22T10:33:44;100357.41;;;13.17;94.02
50368;BME280;36281;34.132;-118.018;2024-03-22T10:36:13;100358.47;;;13.16;94.36
50368;BME280;36281;34.132;-118.018;2024-03-22T10:38:41;100340.50;;;13.12;94.49
50368;BME280;36281;34.132;-118.018;2024-03-22T10:41:11;100352.31;;;13.16;94.55
50368;BME280;36281;34.132;-118.018;2024-03-22T10:43:39;100339.41;;;13.19;93.86
50368;BME280;36281;34.132;-118.018;2024-03-22T10:46:08;100333.28;;;13.19;93.34
50368;BME280;36281;34.132;-118.018;2024-03-22T10:48:38;100337.00;;;13.11;93.86
50368;BME280;36281;34.132;-118.018;2024-03-22T10:51:07;100328.63;;;13.14;93.60
50368;BME280;36281;34.132;-118.018;2024-03-22T10:53:36;100329.66;;;13.13;93.56
50368;BME280;36281;34.132;-118.018;2024-03-22T10:56:07;100314.19;;;13.04;93.26
50368;BME280;36281;34.132;-118.018;2024-03-22T10:58:39;100327.03;;;13.07;93.18
50368;BME280;36281;34.132;-118.018;2024-03-22T11:01:22;100316.63;;;13.05;92.99
50368;BME280;36281;34.132;-118.018;2024-03-22T11:03:50;100331.59;;;13.00;93.64
50368;BME280;36281;34.132;-118.018;2024-03-22T11:06:20;100323.69;;;12.93;93.69
50368;BME280;36281;34.132;-118.018;2024-03-22T11:08:51;100332.63;;;12.99;93.57
50368;BME280;36281;34.132;-118.018;2024-03-22T11:11:19;100331.47;;;12.88;94.18
50368;BME280;36281;34.132;-118.018;2024-03-22T11:13:50;100332.94;;;12.84;94.02
50368;BME280;36281;34.132;-118.018;2024-03-22T11:16:17;100341.50;;;12.86;93.54
50368;BME280;36281;34.132;-118.018;2024-03-22T11:18:45;100333.94;;;12.83;93.29
50368;BME280;36281;34.132;-118.018;2024-03-22T11:21:15;100320.97;;;12.68;92.79
50368;BME280;36281;34.132;-118.018;2024-03-22T11:23:45;100339.38;;;12.63;94.03
50368;BME280;36281;34.132;-118.018;2024-03-22T11:26:13;100329.16;;;12.66;93.57
50368;BME280;36281;34.132;-118.018;2024-03-22T11:28:41;100338.34;;;12.71;94.12
50368;BME280;36281;34.132;-118.018;2024-03-22T11:31:10;100341.88;;;12.58;94.99
50368;BME280;36281;34.132;-118.018;2024-03-22T11:33:38;100344.91;;;12.61;94.58
50368;BME280;36281;34.132;-118.018;2024-03-22T11:36:07;100356.53;;;12.67;94.45
50368;BME280;36281;34.132;-118.018;2024-03-22T11:38:35;100359.81;;;12.62;93.94
50368;BME280;36281;34.132;-118.018;2024-03-22T11:41:03;100359.63;;;12.64;93.34
50368;BME280;36281;34.132;-118.018;2024-03-22T11:43:31;100368.06;;;12.54;93.59
50368;BME280;36281;34.132;-118.018;2024-03-22T11:45:59;100365.38;;;12.61;92.84
50368;BME280;36281;34.132;-118.018;2024-03-22T11:48:30;100363.97;;;12.52;93.27
50368;BME280;36281;34.132;-118.018;2024-03-22T11:50:58;100362.75;;;12.54;93.77
50368;BME280;36281;34.132;-118.018;2024-03-22T11:53:27;100364.25;;;12.44;94.68
50368;BME280;36281;34.132;-118.018;2024-03-22T11:55:55;100374.69;;;12.32;95.01
50368;BME280;36281;34.132;-118.018;2024-03-22T11:58:22;100373.03;;;12.44;94.55
50368;BME280;36281;34.132;-118.018;2024-03-22T12:00:50;100366.28;;;12.41;94.31
50368;BME280;36281;34.132;-118.018;2024-03-22T12:03:18;100359.13;;;12.42;94.08
50368;BME280;36281;34.132;-118.018;2024-03-22T12:05:48;100366.41;;;12.60;94.34
50368;BME280;36281;34.132;-118.018;2024-03-22T12:08:18;100363.13;;;12.58;94.05
50368;BME280;36281;34.132;-118.018;2024-03-22T12:10:46;100361.94;;;12.54;94.77
50368;BME280;36281;34.132;-118.018;2024-03-22T12:13:13;100359.09;;;12.49;95.08
50368;BME280;36281;34.132;-118.018;2024-03-22T12:15:41;100359.91;;;12.49;94.15
50368;BME280;36281;34.132;-118.018;2024-03-22T12:18:08;100358.47;;;12.47;94.95
50368;BME280;36281;34.132;-118.018;2024-03-22T12:20:36;100347.41;;;12.56;95.11
50368;BME280;36281;34.132;-118.018;2024-03-22T12:23:05;100347.81;;;12.60;94.83
50368;BME280;36281;34.132;-118.018;2024-03-22T12:25:32;100344.34;;;12.53;94.33